Tiempo atmosférico en la estación meteorológica de Prat de Lluçanès, Barcelona (700 m.)



Fecha
DESCASC
Temp. máxima en grados centígrados (hora)
DESCASC
Temp. mínima en grados centígrados (hora)
DESCASC
Temp. media en grados centígrados
DESCASC
Racha de viento máxima en m/sg (hora)
DESCASC
Velocidad máxima media en intervalos de 10 minutos(hora)
DESCASC
Precipitaciones diarias en mm
DESCASC
Precipitaciones de 00:00 a 06:00 en mm
DESCASC
Precipitaciones de 06:00 a 12:00 en mm
DESCASC
Precipitaciones de 12:00 a 18:00 en mm
DESCASC
Precipitaciones de 18:00 a 24:00 en mm
DESCASC

Gráficas

Temp. máximas Temp. mínimas Temp. medias Precipitaciones Rachas de viento máximas Velocidades máximas media en intervalos de 10 minutos

Datos horarios

Fecha y hora oficial Temperatura (ºC) Velocidad del viento (km/h) Dirección del viento Racha (km/h) Dirección de racha Precipitación (mm) Presión (hPa) Tendencia (hPa) Humedad (%)
2020-03-31 23:00:00 7.1 12 Nordeste 21 Nordeste 0 -- -- 89
2020-03-31 22:00:00 7.2 8 Nordeste 20 Nordeste 0.6 -- -- 92
2020-03-31 21:00:00 7.6 10 Nordeste 18 Nordeste 1 -- -- 91
2020-03-31 20:00:00 7.9 9 Nordeste 23 Nordeste 0.2 -- -- 89
2020-03-31 19:00:00 8.4 9 Nordeste 24 Este 0 -- -- 86
2020-03-31 18:00:00 8.7 9 Este 19 Este 0.2 -- -- 84
2020-03-31 17:00:00 9.4 4 Sudeste 14 Nordeste 0 -- -- 84
2020-03-31 16:00:00 9.6 4 Este 15 Este 0 -- -- 83
2020-03-31 15:00:00 10.8 8 Nordeste 21 Nordeste 0 -- -- 74
2020-03-31 14:00:00 9.4 11 Nordeste 19 Nordeste 0 -- -- 79
2020-03-31 13:00:00 8.7 8 Este 22 Este 0 -- -- 83
2020-03-31 12:00:00 8.7 11 Este 22 Este 0 -- -- 80
2020-03-31 11:00:00 8.9 10 Este 22 Este 0 -- -- 83
2020-03-31 10:00:00 6.9 7 Nordeste 18 Nordeste 0 -- -- 91
2020-03-31 09:00:00 5.5 10 Nordeste 18 Nordeste 0 -- -- 95
2020-03-31 08:00:00 5 8 Nordeste 16 Nordeste 0 -- -- 96
2020-03-31 07:00:00 4.7 12 Este 22 Nordeste 0.2 -- -- 97
2020-03-31 06:00:00 5.2 8 Este 16 Este 0.2 -- -- 94
2020-03-31 05:00:00 5.6 6 Nordeste 10 Nordeste 0 -- -- 92
2020-03-31 04:00:00 5.3 8 Nordeste 12 Nordeste 0 -- -- 94
2020-03-31 03:00:00 5 3 Nordeste 7 Nordeste 0.2 -- -- 96
2020-03-31 02:00:00 4.8 2 Norte 8 Norte 0 -- -- 96
2020-03-31 01:00:00 4.6 2 Noroeste 7 Nordeste 0 -- -- 96
2020-03-31 00:00:00 4.2 2 Norte 6 Noroeste 0 -- -- 98
2020-03-30 23:00:00 4.1 2 Norte 5 Noroeste 0 -- -- 97
2020-03-30 22:00:00 4 0 Calma 5 Nordeste 0 -- -- 98
2020-03-30 21:00:00 3.9 0 Calma 9 Sur 0 -- -- 97
2020-03-30 20:00:00 4 0 Calma 6 Sur 0 -- -- 96
2020-03-30 19:00:00 4.2 3 Sur 8 Sur 0 -- -- 95
2020-03-30 18:00:00 4.5 3 Sur 7 Sur 0.2 -- -- 93
2020-03-30 17:00:00 4.6 3 Sur 12 Sur 0.2 -- -- 93
2020-03-30 16:00:00 4.6 8 Sudoeste 15 Oeste 0.4 -- -- 90
2020-03-30 15:00:00 4.5 7 Sur 18 Sudoeste 0.4 -- -- 89
2020-03-30 14:00:00 5.1 7 Sur 17 Sur 0 -- -- 87
2020-03-30 13:00:00 4 7 Sudoeste 20 Oeste 0 -- -- 93
2020-03-30 12:00:00 4 11 Sudoeste 21 Oeste 0 -- -- 95
2020-03-30 11:00:00 4.4 12 Sudoeste 21 Oeste 0.2 -- -- 97
2020-03-30 10:00:00 5.1 6 Sur 15 Sur 0.2 -- -- 97
2020-03-30 09:00:00 5.4 4 Sur 10 Sudoeste 0 -- -- 96
2020-03-30 08:00:00 5.6 4 Sur 12 Sudoeste 0 -- -- 95
2020-03-30 07:00:00 5.9 6 Sudoeste 15 Sur 0 -- -- 94
2020-03-30 06:00:00 7.1 0 Calma 8 Oeste 0 -- -- 94
2020-03-30 05:00:00 7.7 4 Sudoeste 6 Sudoeste 0.2 -- -- 94
2020-03-30 04:00:00 7.9 3 Sur 13 Sur 0 -- -- 92
2020-03-30 03:00:00 8.4 4 Nordeste 12 Nordeste 0 -- -- 89
2020-03-30 02:00:00 8.7 6 Nordeste 10 Este 0 -- -- 88
2020-03-30 01:00:00 8.8 5 Nordeste 10 Norte 0 -- -- 89
2020-03-30 00:00:00 8.6 3 Norte 9 Noroeste 0 -- -- 92
2020-03-29 23:00:00 8.9 5 Nordeste 10 Nordeste 0 -- -- 91
2020-03-29 22:00:00 8.7 3 Norte 7 Oeste 0.2 -- -- 93
2020-03-29 21:00:00 9 3 Noroeste 10 Noroeste 0 -- -- 91
2020-03-29 20:00:00 9.5 5 Sur 12 Sur 0 -- -- 90
2020-03-29 19:00:00 10.4 3 Sur 10 Sur 0 -- -- 89
2020-03-29 18:00:00 11.7 2 Sudeste 7 Sur 0.6 -- -- 78
2020-03-29 17:00:00 12.4 2 Sur 14 Sur 1.8 -- -- 73
2020-03-29 16:00:00 15.9 9 Este 20 Este 0 -- -- 44
2020-03-29 15:00:00 17.9 5 Sudoeste 16 Sur 0 -- -- 40
2020-03-29 14:00:00 16.5 6 Sur 19 Sudeste 0 -- -- 48
2020-03-29 13:00:00 15.4 4 Sudeste 14 Sudoeste 0 -- -- 52
2020-03-29 12:00:00 13.9 3 Sudeste 11 Este 0 -- -- 54
2020-03-29 11:00:00 12.1 3 Sudeste 9 Este 0 -- -- 61
2020-03-29 10:00:00 10 3 Este 8 Este 0 -- -- 73
2020-03-29 09:00:00 3.4 0 Calma 7 Noroeste 0 -- -- 99
2020-03-29 08:00:00 2.8 0 Calma 6 Norte 0 -- -- 95
2020-03-29 07:00:00 1.6 3 Nordeste 7 Nordeste 0 -- -- 97
2020-03-29 06:00:00 1 5 Norte 7 Norte 0 -- -- 97
2020-03-29 05:00:00 1.3 4 Norte 7 Norte 0 -- -- 97
2020-03-29 03:00:00 1.4 5 Norte 8 Noroeste 0 -- -- 94
2020-03-29 01:00:00 2.2 3 Norte 7 Norte 0 -- -- 95
2020-03-29 00:00:00 2.5 4 Noroeste 8 Noroeste 0 -- -- 94
2020-03-28 23:00:00 3 5 Noroeste 8 Noroeste 0 -- -- 92
2020-03-28 22:00:00 4.4 3 Noroeste 8 Noroeste 0 -- -- 86
2020-03-28 21:00:00 8.6 2 Este 10 Oeste 0 -- -- 75
2020-03-28 20:00:00 9.3 5 Oeste 12 Sudoeste 0 -- -- 74
2020-03-28 19:00:00 11.5 8 Sudoeste 17 Sudoeste 0 -- -- 65
2020-03-28 18:00:00 13.2 10 Sudoeste 21 Sudoeste 0 -- -- 58
2020-03-28 17:00:00 13.3 8 Sudoeste 19 Sur 0 -- -- 58
2020-03-28 16:00:00 13.7 10 Oeste 22 Oeste 0 -- -- 54
2020-03-28 15:00:00 14.3 5 Oeste 21 Sudoeste 0 -- -- 51
2020-03-28 14:00:00 14.1 8 Sudoeste 18 Sur 0 -- -- 50
2020-03-28 13:00:00 14.2 5 Sur 19 Sur 0 -- -- 52
2020-03-28 12:00:00 12.7 3 Sudeste 12 Sudoeste 0 -- -- 56
2020-03-28 11:00:00 11.3 4 Noroeste 11 Sudoeste 0 -- -- 56
2020-03-28 10:00:00 10.2 3 Sur 6 Sudoeste 0 -- -- 59
2020-03-28 09:00:00 8.6 0 Calma 3 Noroeste 0 -- -- 65
2020-03-28 08:00:00 5.5 3 Noroeste 5 Norte 0 -- -- 90
2020-03-28 07:00:00 3.8 0 Calma 6 Noroeste 0 -- -- 90
2020-03-28 06:00:00 3.9 2 Norte 5 Noroeste 0 -- -- 89
2020-03-28 05:00:00 4.4 3 Noroeste 5 Norte 0 -- -- 89
2020-03-28 04:00:00 4.5 3 Noroeste 8 Noroeste 0 -- -- 87
2020-03-28 03:00:00 4.4 4 Noroeste 7 Sur 0 -- -- 88
2020-03-28 02:00:00 4 4 Noroeste 5 Noroeste 0 -- -- 91
2020-03-28 01:00:00 4.1 4 Noroeste 7 Norte 0 -- -- 89
2020-03-28 00:00:00 5.2 2 Noroeste 5 Noroeste 0 -- -- 84
2020-03-27 23:00:00 5.2 3 Oeste 6 Norte 0 -- -- 83
2020-03-27 22:00:00 5 3 Noroeste 6 Noroeste 0 -- -- 88
2020-03-27 21:00:00 6.1 2 Este 6 Este 0 -- -- 82
2020-03-27 20:00:00 6.5 3 Noroeste 8 Oeste 0 -- -- 79
2020-03-27 19:00:00 7.3 4 Este 13 Este 0 -- -- 70
2020-03-27 18:00:00 8.8 3 Sur 14 Sudoeste 0 -- -- 56
2020-03-27 17:00:00 10 2 Sur 6 Este 0 -- -- 46
2020-03-27 16:00:00 10.5 3 Sur 9 Sudoeste 0 -- -- 46
2020-03-27 15:00:00 10 4 Oeste 10 Oeste 0 -- -- 42
2020-03-27 14:00:00 10 4 Noroeste 14 Oeste 0 -- -- 42
2020-03-27 13:00:00 9.2 3 Sudeste 9 Sur 0 -- -- 56
2020-03-27 12:00:00 7.5 3 Sur 8 Sudoeste 0 -- -- 63
2020-03-27 11:00:00 5.9 4 Este 8 Sudoeste 0 -- -- 73
2020-03-27 10:00:00 5.2 3 Sudeste 8 Sur 0 -- -- 73
2020-03-27 09:00:00 3.4 0 Calma 4 Este 0 -- -- 85
2020-03-27 08:00:00 -0.3 3 Norte 6 Noroeste 0 -- -- 96
2020-03-27 07:00:00 -2.5 4 Noroeste 6 Noroeste 0 -- -- 96
2020-03-27 06:00:00 -3.3 4 Norte 6 Noroeste 0 -- -- 95
2020-03-27 05:00:00 -3.5 6 Noroeste 7 Noroeste 0 -- -- 95
2020-03-27 04:00:00 -3.1 4 Noroeste 6 Noroeste 0 -- -- 95
2020-03-27 03:00:00 -2.8 4 Noroeste 6 Noroeste 0 -- -- 94
2020-03-27 02:00:00 -2.3 5 Noroeste 7 Noroeste 0 -- -- 95
2020-03-27 01:00:00 -2.3 4 Noroeste 6 Noroeste 0 -- -- 95
2020-03-27 00:00:00 -2.2 5 Noroeste 7 Noroeste 0 -- -- 94
2020-03-26 23:00:00 -1.7 5 Noroeste 6 Norte 0 -- -- 93
2020-03-26 22:00:00 -1 3 Norte 6 Norte 0 -- -- 91
2020-03-26 21:00:00 0.4 0 Calma 7 Este 0 -- -- 87
2020-03-26 20:00:00 3.1 3 Este 10 Sudeste 0 -- -- 78
2020-03-26 19:00:00 4 7 Nordeste 18 Nordeste 0 -- -- 72
2020-03-26 18:00:00 4.9 10 Este 31 Este 0 -- -- 68
2020-03-26 17:00:00 5.7 13 Este 32 Este 0 -- -- 67
2020-03-26 16:00:00 6.4 18 Este 39 Este 0 -- -- 63
2020-03-26 15:00:00 6.7 16 Este 34 Este 0 -- -- 65
2020-03-26 14:00:00 6.6 13 Este 39 Este 0 -- -- 69
2020-03-26 13:00:00 4.4 15 Este 29 Este 0 -- -- 82
2020-03-26 12:00:00 5.5 8 Nordeste 23 Nordeste 0 -- -- 71
2020-03-26 11:00:00 6.1 12 Nordeste 26 Nordeste 0 -- -- 68
2020-03-26 10:00:00 5 9 Este 19 Nordeste 0 -- -- 78
2020-03-26 09:00:00 3.8 9 Nordeste 19 Nordeste 0 -- -- 85
2020-03-26 08:00:00 1.1 6 Nordeste 16 Nordeste 0 -- -- 95
2020-03-26 07:00:00 0 5 Nordeste 10 Nordeste 0 -- -- 98
2020-03-26 06:00:00 -1 4 Nordeste 12 Nordeste 0 -- -- 99
2020-03-26 05:00:00 -2.1 3 Norte 6 Norte 0 -- -- 97
2020-03-26 04:00:00 -2.4 4 Noroeste 7 Noroeste 0 -- -- 97
2020-03-26 03:00:00 -2.2 4 Noroeste 6 Norte 0 -- -- 96
2020-03-26 02:00:00 -1.7 2 Norte 5 Noroeste 0 -- -- 95
2020-03-26 01:00:00 -0.9 0 Calma 6 Oeste 0 -- -- 94
2020-03-26 00:00:00 -0.8 0 Calma 6 Noroeste 0 -- -- 96
2020-03-25 23:00:00 -0.3 3 Norte 6 Noroeste 0 -- -- 93
2020-03-25 22:00:00 2.1 0 Calma 5 Sur 0 -- -- 86
2020-03-25 21:00:00 3.7 3 Sur 6 Sur 0 -- -- 84
2020-03-25 20:00:00 4.2 3 Sur 12 Sudoeste 0 -- -- 77
2020-03-25 19:00:00 5.2 6 Sur 14 Sur 0 -- -- 74
2020-03-25 18:00:00 5.7 6 Sur 21 Sudoeste 0 -- -- 74
2020-03-25 17:00:00 6.7 7 Sur 22 Sur 0 -- -- 65
2020-03-25 16:00:00 7.4 7 Sur 16 Sur 0 -- -- 60
2020-03-25 15:00:00 7.5 5 Sur 17 Sur 0 -- -- 58
2020-03-25 14:00:00 7.6 5 Sudoeste 20 Sudoeste 0 -- -- 53
2020-03-25 13:00:00 7.9 6 Sudoeste 15 Sudoeste 0 -- -- 53
2020-03-25 12:00:00 8.4 3 Norte 15 Noroeste 0 -- -- 54
2020-03-25 11:00:00 5.3 6 Oeste 13 Oeste 0 -- -- 71
2020-03-25 10:00:00 4.7 4 Noroeste 10 Norte 0 -- -- 72
2020-03-25 09:00:00 2.2 5 Noroeste 16 Noroeste 0 -- -- 87
2020-03-25 08:00:00 1.1 8 Noroeste 15 Noroeste 0 -- -- 91
2020-03-25 07:00:00 0.8 8 Noroeste 23 Nordeste 0 -- -- 92
2020-03-25 06:00:00 1.8 7 Norte 19 Norte 0 -- -- 84
2020-03-25 05:00:00 1.9 10 Nordeste 20 Este 0 -- -- 87
2020-03-25 04:00:00 2.6 9 Este 21 Nordeste 0 -- -- 87
2020-03-25 03:00:00 3.4 10 Nordeste 22 Este 0 -- -- 80
2020-03-25 02:00:00 3.8 10 Este 19 Este 0 -- -- 80
2020-03-25 01:00:00 3.9 8 Este 22 Este 0 -- -- 82
2020-03-25 00:00:00 4 8 Este 18 Este 0 -- -- 84
2020-03-24 23:00:00 4 11 Este 22 Nordeste 0 -- -- 84
2020-03-24 22:00:00 4.3 9 Nordeste 26 Nordeste 0 -- -- 83
2020-03-24 21:00:00 4.7 10 Este 29 Este 0 -- -- 83
2020-03-24 20:00:00 4.9 15 Este 29 Este 0 -- -- 82
2020-03-24 19:00:00 5.5 13 Este 30 Este 0 -- -- 84
2020-03-24 18:00:00 6.2 17 Este 30 Este 0 -- -- 83
2020-03-24 17:00:00 7.1 14 Este 26 Este 0 -- -- 79
2020-03-24 16:00:00 8 10 Este 27 Este 0 -- -- 74
2020-03-24 15:00:00 9.3 13 Este 29 Este 0 -- -- 68
2020-03-24 14:00:00 10.1 18 Este 33 Este 0 -- -- 63
2020-03-24 13:00:00 10.5 10 Este 28 Este 0 -- -- 65
2020-03-24 12:00:00 10 8 Sudeste 28 Este 0 -- -- 73
2020-03-24 11:00:00 10.1 12 Este 26 Este 0 -- -- 71
2020-03-24 10:00:00 8.6 10 Este 26 Este 0 -- -- 77
2020-03-24 09:00:00 7.2 13 Nordeste 23 Este 0 -- -- 85
2020-03-24 08:00:00 6.2 8 Este 18 Este 0 -- -- 92
2020-03-24 07:00:00 6.3 6 Este 14 Nordeste 0 -- -- 90
2020-03-24 06:00:00 6.8 9 Nordeste 16 Este 0 -- -- 87
2020-03-24 05:00:00 6.6 7 Este 17 Este 0 -- -- 90
2020-03-24 04:00:00 6.7 6 Nordeste 21 Este 0 -- -- 89
2020-03-24 03:00:00 6.8 10 Este 23 Este 0 -- -- 90
2020-03-24 02:00:00 7.1 8 Nordeste 18 Este 0 -- -- 93
2020-03-24 01:00:00 7.3 7 Este 17 Nordeste 0 -- -- 92
2020-03-24 00:00:00 7.5 9 Este 21 Este 0 -- -- 91
2020-03-23 23:00:00 7.8 9 Nordeste 18 Nordeste 0 -- -- 89
2020-03-23 22:00:00 7.5 8 Nordeste 18 Este 0 -- -- 90
2020-03-23 21:00:00 8 11 Nordeste 22 Este 0 -- -- 88
2020-03-23 20:00:00 8.5 12 Este 28 Este 0 -- -- 87
2020-03-23 19:00:00 9.3 14 Este 32 Nordeste 0 -- -- 83
2020-03-23 18:00:00 9.8 12 Nordeste 27 Este 0 -- -- 80
2020-03-23 17:00:00 11.1 14 Este 25 Nordeste 0 -- -- 75
2020-03-23 16:00:00 11.8 12 Nordeste 22 Este 0 -- -- 72
2020-03-23 15:00:00 10.6 9 Nordeste 19 Nordeste 0 -- -- 81
2020-03-23 14:00:00 10 5 Nordeste 17 Este 0.2 -- -- 82
2020-03-23 13:00:00 10.3 7 Nordeste 14 Nordeste 0 -- -- 80
2020-03-23 12:00:00 9.9 8 Este 17 Este 0.6 -- -- 85
2020-03-23 11:00:00 10.2 8 Este 21 Este 0 -- -- 78
2020-03-23 10:00:00 9.9 8 Este 19 Este 0 -- -- 79
2020-03-23 09:00:00 9.7 4 Nordeste 14 Nordeste 0 -- -- 82
2020-03-23 08:00:00 8.7 8 Nordeste 15 Nordeste 0 -- -- 86
2020-03-23 07:00:00 8.2 6 Nordeste 11 Nordeste 0 -- -- 86
2020-03-23 06:00:00 8.1 4 Nordeste 10 Nordeste 0 -- -- 84
2020-03-23 05:00:00 7.8 2 Norte 8 Nordeste 0.2 -- -- 88
2020-03-23 04:00:00 8.5 5 Nordeste 9 Nordeste 0 -- -- 81
2020-03-23 03:00:00 8.3 4 Nordeste 14 Nordeste 0 -- -- 82
2020-03-23 02:00:00 8.1 4 Norte 10 Nordeste 0 -- -- 84
2020-03-23 01:00:00 7.9 4 Nordeste 10 Nordeste 0 -- -- 88
2020-03-23 00:00:00 8.1 7 Nordeste 15 Este 0 -- -- 90
2020-03-22 23:00:00 8.6 3 Este 8 Este 0 -- -- 85
2020-03-22 22:00:00 8.8 2 Nordeste 10 Este 0 -- -- 85
2020-03-22 21:00:00 9.4 4 Este 19 Este 0 -- -- 87
2020-03-22 20:00:00 9.7 8 Este 19 Este 0 -- -- 81
2020-03-22 19:00:00 10.3 10 Este 22 Este 0 -- -- 79
2020-03-22 18:00:00 11.3 4 Sudeste 19 Este 0 -- -- 70
2020-03-22 17:00:00 12 11 Este 23 Este 0 -- -- 67
2020-03-22 16:00:00 13.5 5 Sudeste 18 Este 0 -- -- 62
2020-03-22 15:00:00 14.4 6 Sudeste 20 Este 0 -- -- 61
2020-03-22 14:00:00 13.2 6 Este 19 Este 0 -- -- 56
2020-03-22 13:00:00 13.9 10 Este 22 Este 0 -- -- 57
2020-03-22 12:00:00 12.8 9 Este 22 Nordeste 0 -- -- 62
2020-03-22 11:00:00 10.6 11 Este 21 Este 0 -- -- 77
2020-03-22 10:00:00 10.1 7 Este 17 Este 0 -- -- 84
2020-03-22 09:00:00 8.9 6 Nordeste 13 Nordeste 0 -- -- 90
2020-03-22 08:00:00 7.8 4 Nordeste 9 Nordeste 0 -- -- 98
2020-03-22 07:00:00 6.6 3 Nordeste 5 Nordeste 0 -- -- 99
2020-03-22 06:00:00 6.9 2 Noroeste 5 Noroeste 0 -- -- 97
2020-03-22 05:00:00 7.9 0 Calma 5 Noroeste 0 -- -- 97
2020-03-22 04:00:00 8.2 0 Calma 5 Noroeste 0 -- -- 97
2020-03-22 03:00:00 8.4 2 Noroeste 4 Noroeste 0 -- -- 97
2020-03-22 02:00:00 8.4 0 Calma 5 Oeste 0 -- -- 97
2020-03-22 01:00:00 8.5 3 Oeste 7 Oeste 0 -- -- 96
2020-03-22 00:00:00 8.7 4 Noroeste 8 Oeste 0.4 -- -- 94
2020-03-21 23:00:00 9.5 4 Sudoeste 11 Sudoeste 0 -- -- 90
2020-03-21 22:00:00 9.8 5 Sudoeste 9 Sudoeste 0 -- -- 86
2020-03-21 21:00:00 10.1 3 Sur 9 Sur 0 -- -- 83
2020-03-21 20:00:00 10.9 3 Sur 11 Sur 0 -- -- 78
2020-03-21 19:00:00 11.7 4 Sur 15 Sur 0 -- -- 71
2020-03-21 18:00:00 13 4 Sur 8 Sudoeste 0 -- -- 60
2020-03-21 17:00:00 14.2 4 Sur 12 Sur 0 -- -- 55
2020-03-21 16:00:00 14.5 3 Sudeste 19 Este 0 -- -- 52
2020-03-21 15:00:00 14.7 5 Este 20 Este 0 -- -- 47
2020-03-21 14:00:00 14.5 7 Sudeste 15 Este 0 -- -- 48
2020-03-21 13:00:00 13.5 8 Este 18 Este 0 -- -- 49
2020-03-21 12:00:00 14 6 Sudeste 19 Este 0 -- -- 50
2020-03-21 11:00:00 12 8 Este 21 Este 0 -- -- 53
2020-03-21 10:00:00 11 8 Nordeste 15 Nordeste 0 -- -- 57
2020-03-21 09:00:00 8.7 5 Nordeste 15 Nordeste 0 -- -- 65
2020-03-21 08:00:00 6.2 8 Nordeste 14 Nordeste 0 -- -- 79
2020-03-21 07:00:00 1.7 3 Nordeste 8 Norte 0 -- -- 89
2020-03-21 06:00:00 4 4 Nordeste 10 Nordeste 0 -- -- 85
2020-03-21 05:00:00 2.7 3 Nordeste 8 Norte 0 -- -- 90
2020-03-21 04:00:00 3.5 2 Norte 8 Nordeste 0 -- -- 92
2020-03-21 03:00:00 3.5 3 Norte 8 Norte 0 -- -- 89
2020-03-21 02:00:00 3.5 4 Nordeste 7 Nordeste 0 -- -- 93
2020-03-21 01:00:00 2.9 4 Noroeste 6 Noroeste 0 -- -- 92
2020-03-21 00:00:00 3.4 5 Noroeste 6 Noroeste 0 -- -- 91
2020-03-20 23:00:00 5.3 5 Noroeste 6 Norte 0 -- -- 86
2020-03-20 22:00:00 8.3 0 Calma 5 Oeste 0 -- -- 79
2020-03-20 21:00:00 9 4 Oeste 6 Oeste 0 -- -- 74
2020-03-20 20:00:00 9.3 3 Sudoeste 8 Sur 0 -- -- 72
2020-03-20 19:00:00 10.7 4 Sur 18 Sudoeste 0 -- -- 66
2020-03-20 18:00:00 13.9 7 Sur 21 Sur 0 -- -- 57
2020-03-20 17:00:00 14.9 6 Sur 20 Sur 0 -- -- 52
2020-03-20 16:00:00 16.5 5 Sur 18 Sur 0 -- -- 47
2020-03-20 15:00:00 16.3 5 Sur 14 Sur 0 -- -- 49
2020-03-20 14:00:00 15.8 5 Sudeste 19 Este 0 -- -- 33
2020-03-20 13:00:00 14.8 4 Sudeste 17 Este 0 -- -- 39
2020-03-20 12:00:00 13.9 6 Sudeste 18 Este 0 -- -- 43
2020-03-20 11:00:00 13.1 4 Sudeste 14 Este 0 -- -- 50
2020-03-20 10:00:00 11.5 4 Este 8 Este 0 -- -- 57
2020-03-20 09:00:00 8.8 3 Este 6 Sudoeste 0 -- -- 70
2020-03-20 08:00:00 2.2 2 Noroeste 7 Noroeste 0 -- -- 98
2020-03-20 07:00:00 0.4 5 Norte 8 Norte 0 -- -- 96
2020-03-20 06:00:00 0.8 4 Noroeste 6 Noroeste 0 -- -- 95
2020-03-20 05:00:00 1.3 4 Noroeste 6 Noroeste 0 -- -- 96
2020-03-20 04:00:00 2 4 Noroeste 6 Noroeste 0 -- -- 98
2020-03-20 03:00:00 1.9 5 Noroeste -- -- 0 -- -- 97
2020-03-20 02:00:00 2.7 3 Noroeste 6 Noroeste 0 -- -- 95
2020-03-20 01:00:00 3.7 2 Oeste 6 Nordeste 0 -- -- 94
2020-03-20 00:00:00 5.3 3 Norte 7 Nordeste 0 -- -- 90
2020-03-19 23:00:00 7.7 6 Este 9 Este 0 -- -- 85
2020-03-19 22:00:00 5.8 2 Norte 8 Noroeste 0 -- -- 89
2020-03-19 21:00:00 7.4 5 Norte 9 Este 0 -- -- 86
2020-03-19 20:00:00 9.1 2 Norte 6 Noroeste 0 -- -- 83
2020-03-19 19:00:00 12 3 Sudeste 12 Sudoeste 0 -- -- 74
2020-03-19 18:00:00 14.6 4 Sur 14 Este 0 -- -- 67
2020-03-19 17:00:00 16.8 3 Sur 15 Sudoeste 0 -- -- 58
2020-03-19 16:00:00 18.1 5 Sur 17 Sur 0 -- -- 52
2020-03-19 15:00:00 18.3 5 Sur 20 Este 0 -- -- 49
2020-03-19 14:00:00 17.9 7 Sudeste 26 Este 0 -- -- 34
2020-03-19 13:00:00 17.3 10 Este 23 Este 0 -- -- 34
2020-03-19 12:00:00 17.2 6 Este 17 Este 0 -- -- 30
2020-03-19 11:00:00 15.9 6 Este 12 Este 0 -- -- 44
2020-03-19 10:00:00 14.1 5 Nordeste 12 Nordeste 0 -- -- 49
2020-03-19 09:00:00 11.1 3 Nordeste 9 Nordeste 0 -- -- 68
2020-03-19 08:00:00 3.4 5 Noroeste 9 Noroeste 0 -- -- 100
2020-03-19 07:00:00 1.9 6 Noroeste 7 Noroeste 0 -- -- 98
2020-03-19 06:00:00 2.1 6 Noroeste 6 Noroeste 0 -- -- 98
2020-03-19 05:00:00 2.8 3 Norte 7 Noroeste 0 -- -- 98
2020-03-19 04:00:00 2.9 4 Noroeste 6 Norte 0 -- -- 98
2020-03-19 03:00:00 3 5 Noroeste 7 Norte 0 -- -- 98
2020-03-19 02:00:00 3.4 5 Noroeste 6 Noroeste 0 -- -- 97
2020-03-19 01:00:00 4.3 6 Norte 6 Norte 0 -- -- 95
2020-03-19 00:00:00 5.4 0 Calma 6 Noroeste 0 -- -- 95
2020-03-18 23:00:00 6.9 0 Calma 7 Noroeste 0 -- -- 92
2020-03-18 22:00:00 7.1 5 Noroeste 6 Noroeste 0 -- -- 93
2020-03-18 21:00:00 7.6 5 Noroeste 5 Noroeste 0 -- -- 91
2020-03-18 20:00:00 8.8 4 Noroeste 5 Noroeste 0 -- -- 87
2020-03-18 19:00:00 11.7 0 Calma 4 Noroeste 0 -- -- 79
2020-03-18 18:00:00 14 2 Sur 6 Sur 0 -- -- 65
2020-03-18 17:00:00 14.7 3 Sur 10 Sudoeste 0 -- -- 64
2020-03-18 16:00:00 14.5 8 Sudoeste 19 Sudoeste 0 -- -- 67
2020-03-18 15:00:00 17 7 Sur 15 Sur 0 -- -- 57
2020-03-18 14:00:00 16.5 5 Sudoeste 13 Sudoeste 0 -- -- 52
2020-03-18 13:00:00 15.2 4 Noroeste 11 Sur 0 -- -- 55
2020-03-18 12:00:00 14.1 4 Sur 10 Sudoeste 0 -- -- 61
2020-03-18 11:00:00 12.4 3 Sur 5 Sudoeste 0 -- -- 63
2020-03-18 10:00:00 10.1 0 Calma 2 Norte 0 -- -- 78
2020-03-18 09:00:00 7.7 2 Noroeste 5 Norte 0 -- -- 97
2020-03-18 08:00:00 5.3 3 Noroeste 5 Noroeste 0 -- -- 98
2020-03-18 07:00:00 4.5 3 Noroeste 6 Noroeste 0 -- -- 98
2020-03-18 06:00:00 4.6 4 Noroeste 6 Noroeste 0 -- -- 98
2020-03-18 05:00:00 5 3 Norte 6 Norte 0 -- -- 98
2020-03-18 04:00:00 5.2 4 Noroeste 6 Noroeste 0 -- -- 97
2020-03-18 03:00:00 6.3 3 Noroeste 7 Norte 0 -- -- 97
2020-03-18 02:00:00 6 3 Norte 6 Noroeste 0 -- -- 97
2020-03-18 01:00:00 6.8 3 Norte 8 Nordeste 0 -- -- 98
2020-03-18 00:00:00 5.9 2 Norte 7 Norte 0 -- -- 98
2020-03-17 23:00:00 6.1 3 Norte 6 Noroeste 0 -- -- 97
2020-03-17 22:00:00 7.1 3 Noroeste 6 Noroeste 0 -- -- 96
2020-03-17 21:00:00 8.7 4 Nordeste 6 Norte 0 -- -- 92
2020-03-17 20:00:00 10.2 4 Nordeste 9 Este 0 -- -- 85
2020-03-17 19:00:00 10.8 3 Este 13 Este 0 -- -- 84
2020-03-17 18:00:00 11.6 4 Este 13 Este 0 -- -- 82
2020-03-17 17:00:00 12.1 5 Este 17 Este 0 -- -- 80
2020-03-17 16:00:00 12.3 6 Este 18 Este 0 -- -- 79
2020-03-17 15:00:00 12.3 8 Este 17 Este 0 -- -- 80
2020-03-17 14:00:00 12.2 4 Este 14 Este 0 -- -- 79
2020-03-17 13:00:00 11 7 Este 18 Este 0 -- -- 86
2020-03-17 12:00:00 11.2 10 Este 17 Nordeste 0.2 -- -- 78
2020-03-17 11:00:00 11.4 8 Nordeste 17 Nordeste 0 -- -- 76
2020-03-17 10:00:00 11 10 Nordeste 18 Nordeste 0 -- -- 72
2020-03-17 09:00:00 10.7 11 Nordeste 22 Este 0 -- -- 73
2020-03-17 08:00:00 10.2 11 Nordeste 27 Nordeste 0 -- -- 72
2020-03-17 07:00:00 9.9 12 Nordeste 29 Este 0 -- -- 72
2020-03-17 06:00:00 9.2 14 Nordeste 27 Nordeste 0 -- -- 76
2020-03-17 05:00:00 9.2 10 Nordeste 21 Nordeste 0 -- -- 75
2020-03-17 04:00:00 9.2 11 Nordeste 26 Nordeste 0 -- -- 75
2020-03-17 03:00:00 8.9 12 Nordeste 25 Nordeste 0 -- -- 79
2020-03-17 02:00:00 8.7 11 Nordeste 25 Nordeste 0 -- -- 84
2020-03-17 01:00:00 8.9 10 Nordeste 24 Nordeste 0 -- -- 87
2020-03-17 00:00:00 9 13 Nordeste 31 Nordeste 0 -- -- 89
2020-03-16 23:00:00 9.1 15 Nordeste 35 Nordeste 0 -- -- 89
2020-03-16 22:00:00 8.8 16 Nordeste 32 Este 0 -- -- 91
2020-03-16 21:00:00 8.5 12 Nordeste 27 Nordeste 0 -- -- 93
2020-03-16 20:00:00 8.3 13 Nordeste 27 Nordeste 0.2 -- -- 96
2020-03-16 19:00:00 8.2 10 Nordeste 21 Nordeste 3 -- -- 96
2020-03-16 18:00:00 8.3 7 Norte 12 Norte 1.8 -- -- 95
2020-03-16 17:00:00 8.7 6 Nordeste 23 Nordeste 1.2 -- -- 95
2020-03-16 16:00:00 8.8 12 Nordeste 23 Este 3 -- -- 95
2020-03-16 15:00:00 8.8 12 Nordeste 24 Nordeste 0.2 -- -- 91
2020-03-16 14:00:00 9 14 Nordeste 32 Nordeste 0.4 -- -- 86
2020-03-16 13:00:00 9.7 15 Nordeste 33 Nordeste 0 -- -- 79
2020-03-16 12:00:00 9.5 12 Nordeste 30 Nordeste 0 -- -- 77
2020-03-16 11:00:00 9.4 14 Nordeste 31 Nordeste 0 -- -- 73
2020-03-16 10:00:00 8.8 12 Nordeste 30 Este 0 -- -- 75
2020-03-16 09:00:00 8.3 17 Nordeste 26 Este 0 -- -- 75
2020-03-16 08:00:00 8.7 11 Nordeste 21 Este 0 -- -- 79
2020-03-16 07:00:00 8.4 9 Nordeste 16 Nordeste 0 -- -- 90
2020-03-16 06:00:00 8.3 7 Nordeste 13 Nordeste 0 -- -- 94
2020-03-16 05:00:00 8.1 4 Nordeste 14 Nordeste 0 -- -- 95
2020-03-16 04:00:00 8.2 5 Nordeste 13 Este 0 -- -- 95
2020-03-16 03:00:00 8.5 5 Este 13 Este 0 -- -- 91
2020-03-16 02:00:00 9 2 Sur 5 Sur 0 -- -- 89
2020-03-16 01:00:00 9.2 2 Sur 10 Sur 0 -- -- 86
2020-03-16 00:00:00 9.4 3 Sur 7 Sur 0 -- -- 88
2020-03-15 23:00:00 9.5 2 Sur 8 Sur 0 -- -- 90
2020-03-15 22:00:00 9.5 3 Sur 7 Sur 0 -- -- 89
2020-03-15 21:00:00 9.9 5 Sur 9 Sudoeste 0 -- -- 88
2020-03-15 20:00:00 10.2 3 Sur 13 Sur 0 -- -- 83
2020-03-15 19:00:00 11.2 9 Sur 17 Sur 0 -- -- 77
2020-03-15 18:00:00 12.8 5 Sur 16 Sur 0 -- -- 72
2020-03-15 17:00:00 13.9 6 Sur 23 Sudoeste 0 -- -- 68
2020-03-15 16:00:00 15.9 10 Sur 25 Sur 0 -- -- 61
2020-03-15 15:00:00 15.5 12 Sur 24 Sur 0 -- -- 62
2020-03-15 14:00:00 14.9 10 Sur 21 Sur 0 -- -- 64
2020-03-15 13:00:00 13.8 8 Sur 20 Sudoeste 0 -- -- 66
2020-03-15 12:00:00 12.8 5 Sur 13 Sur 0 -- -- 70
2020-03-15 11:00:00 10.3 4 Sur 10 Sudoeste 0 -- -- 87
2020-03-15 10:00:00 7.7 0 Calma 6 Este 0 -- -- 100
2020-03-15 09:00:00 6.7 2 Este 8 Oeste 0 -- -- 100
2020-03-15 08:00:00 5.8 3 Noroeste 5 Sudoeste 0 -- -- 100
2020-03-15 07:00:00 4.9 0 Calma 5 Noroeste 0 -- -- 100
2020-03-15 06:00:00 5.2 2 Noroeste 4 Norte 0 -- -- 100
2020-03-15 05:00:00 4.2 0 Calma 5 Norte 0 -- -- 97
2020-03-15 04:00:00 4 4 Norte 6 Noroeste 0 -- -- 97
2020-03-15 03:00:00 5.2 5 Norte 5 Noroeste 0 -- -- 94
2020-03-15 02:00:00 8.1 3 Noroeste 5 Noroeste 0 -- -- 97
2020-03-15 01:00:00 7.6 4 Noroeste 5 Noroeste 0 -- -- 96
2020-03-15 00:00:00 9.1 3 Noroeste 5 Sur 0 -- -- 96
2020-03-14 23:00:00 9.4 3 Sur 8 Oeste 0 -- -- 98
2020-03-14 22:00:00 8 0 Calma 3 Norte 0 -- -- 97
2020-03-14 21:00:00 9.5 4 Oeste 9 Sudoeste 0 -- -- 94
2020-03-14 20:00:00 10.6 4 Sur 9 Sudoeste 0 -- -- 90
2020-03-14 19:00:00 12.5 2 Sudoeste 6 Sur 0 -- -- 74
2020-03-14 18:00:00 14.1 4 Sur 8 Sur 0 -- -- 68
2020-03-14 17:00:00 14 3 Sur 15 Sudoeste 0 -- -- 68
2020-03-14 16:00:00 13.6 6 Sur 15 Sur 0 -- -- 69
2020-03-14 15:00:00 13.5 3 Sur 9 Sur 0 -- -- 77
2020-03-14 14:00:00 13.1 3 Sur 10 Sudoeste 0 -- -- 79
2020-03-14 13:00:00 12.2 4 Sudoeste 9 Sudoeste 0 -- -- 84
2020-03-14 12:00:00 10.4 5 Sudoeste 10 Sudoeste 0 -- -- 92
2020-03-14 11:00:00 10.3 3 Sur 8 Sur 0 -- -- 93
2020-03-14 10:00:00 9.8 4 Sur 7 Sur 0 -- -- 94
2020-03-14 09:00:00 9.5 0 Calma 4 Sur 0 -- -- 97
2020-03-14 08:00:00 9 0 Calma 4 Este 0 -- -- 97
2020-03-14 07:00:00 9.1 0 Calma 4 Sudeste 0 -- -- 96
2020-03-14 06:00:00 9.1 2 Noroeste 5 Sur 0 -- -- 96
2020-03-14 05:00:00 9.2 0 Calma 4 Sur 0 -- -- 95
2020-03-14 04:00:00 8.9 0 Calma 3 Sur 0 -- -- 97
2020-03-14 03:00:00 7.2 0 Calma 6 Noroeste 0 -- -- 98
2020-03-14 02:00:00 6.3 5 Norte 6 Norte 0 -- -- 95
2020-03-14 01:00:00 7.7 0 Calma 5 Noroeste 0 -- -- 93
2020-03-14 00:00:00 9.3 0 Calma 4 Sur 0 -- -- 84
2020-03-13 23:00:00 11.4 2 Sur 6 Sudoeste 0 -- -- 81
2020-03-13 22:00:00 12 2 Sur 9 Sudoeste 0 -- -- 79
2020-03-13 21:00:00 12.5 0 Calma 12 Sur 0 -- -- 77
2020-03-13 20:00:00 12.9 3 Sur 10 Sur 0 -- -- 75
2020-03-13 19:00:00 13.6 6 Sudoeste 13 Sudoeste 0 -- -- 72
2020-03-13 18:00:00 14.2 9 Oeste 23 Sudoeste 0 -- -- 69
2020-03-13 17:00:00 15.3 11 Sur 23 Oeste 0 -- -- 64
2020-03-13 16:00:00 16.5 14 Sudoeste 28 Sudoeste 0 -- -- 60
2020-03-13 15:00:00 17.1 9 Sur 25 Sur 0 -- -- 59
2020-03-13 14:00:00 17.2 10 Sudoeste 20 Sur 0 -- -- 56
2020-03-13 13:00:00 17.1 9 Sur 21 Sudoeste 0 -- -- 54
2020-03-13 12:00:00 15.7 12 Sudoeste 21 Oeste 0 -- -- 55
2020-03-13 11:00:00 14.4 12 Oeste 17 Oeste 0 -- -- 69
2020-03-13 10:00:00 12 7 Noroeste 13 Noroeste 0 -- -- 82
2020-03-13 09:00:00 11.4 4 Noroeste 6 Noroeste 0 -- -- 88
2020-03-13 08:00:00 8.4 3 Noroeste 4 Noroeste 0 -- -- 94
2020-03-13 07:00:00 9.2 2 Noroeste 11 Noroeste 0 -- -- 93
2020-03-13 06:00:00 8.5 4 Noroeste 7 Noroeste 0 -- -- 97
2020-03-13 05:00:00 7.4 3 Noroeste 8 Noroeste 0 -- -- 95
2020-03-13 04:00:00 8.6 0 Calma 5 Norte 0 -- -- 91
2020-03-13 03:00:00 9.4 3 Noroeste 10 Nordeste 0 -- -- 92
2020-03-13 02:00:00 8.9 0 Calma 7 Norte 0 -- -- 90
2020-03-13 01:00:00 10.2 5 Noroeste 8 Noroeste 0 -- -- 90
2020-03-13 00:00:00 10.9 0 Calma 5 Noroeste 0 -- -- 88
2020-03-12 23:00:00 11.9 3 Nordeste 9 Nordeste 0 -- -- 82
2020-03-12 22:00:00 11.4 4 Norte 8 Noroeste 0 -- -- 83
2020-03-12 21:00:00 12.3 5 Noroeste 6 Norte 0 -- -- 80
2020-03-12 20:00:00 14.8 5 Noroeste 8 Oeste 0 -- -- 70
2020-03-12 19:00:00 18.4 2 Norte 10 Sudoeste 0 -- -- 57
2020-03-12 18:00:00 21.4 4 Sur 14 Sudoeste 0 -- -- 46
2020-03-12 17:00:00 23.4 9 Sur 19 Sudoeste 0 -- -- 41
2020-03-12 16:00:00 23.6 7 Sur 19 Sudoeste 0 -- -- 40
2020-03-12 15:00:00 23.2 7 Sur 21 Sudoeste 0 -- -- 42
2020-03-12 14:00:00 23.6 6 Sur 18 Sudoeste 0 -- -- 39
2020-03-12 13:00:00 23.7 4 Sur 14 Sudoeste 0 -- -- 37
2020-03-12 12:00:00 22.6 4 Este 11 Este 0 -- -- 40
2020-03-12 11:00:00 20.4 3 Sudeste 10 Este 0 -- -- 45
2020-03-12 10:00:00 18.3 2 Norte 9 Nordeste 0 -- -- 46
2020-03-12 09:00:00 14.5 4 Nordeste 8 Nordeste 0 -- -- 55
2020-03-12 08:00:00 6.1 5 Noroeste 8 Norte 0 -- -- 92
2020-03-12 07:00:00 5.1 6 Noroeste 8 Noroeste 0 -- -- 90
2020-03-12 06:00:00 5.1 4 Norte 7 Noroeste 0 -- -- 90
2020-03-12 05:00:00 5.4 4 Norte 7 Noroeste 0 -- -- 90
2020-03-12 04:00:00 5.6 5 Norte 8 Norte 0 -- -- 89
2020-03-12 03:00:00 6 5 Norte 7 Noroeste 0 -- -- 88
2020-03-12 02:00:00 6.9 6 Noroeste 8 Noroeste 0 -- -- 89
2020-03-12 01:00:00 7.5 5 Norte 8 Noroeste 0 -- -- 90
2020-03-12 00:00:00 7 5 Norte 7 Norte 0 -- -- 87
2020-03-11 23:00:00 7.2 5 Noroeste 7 Norte 0 -- -- 85
2020-03-11 22:00:00 7.7 4 Norte 6 Norte 0 -- -- 82
2020-03-11 21:00:00 9.2 3 Noroeste 4 Sudoeste 0 -- -- 75
2020-03-11 20:00:00 10.7 2 Noroeste 6 Noroeste 0 -- -- 73
2020-03-11 19:00:00 16.8 0 Calma 12 Sur 0 -- -- 53
2020-03-11 18:00:00 20.6 6 Sur 14 Sudoeste 0 -- -- 39
2020-03-11 17:00:00 21.9 6 Sur 16 Sur 0 -- -- 40
2020-03-11 16:00:00 22.1 5 Sur 14 Sur 0 -- -- 39
2020-03-11 15:00:00 21.1 3 Sur 15 Sudoeste 0 -- -- 40
2020-03-11 14:00:00 20.1 4 Sur 13 Sudoeste 0 -- -- 44
2020-03-11 13:00:00 18.6 5 Sur 14 Sur 0 -- -- 47
2020-03-11 12:00:00 17.6 5 Sudoeste 9 Sur 0 -- -- 52
2020-03-11 11:00:00 15.7 2 Este 7 Este 0 -- -- 59
2020-03-11 10:00:00 13.6 4 Este 6 Este 0 -- -- 65
2020-03-11 09:00:00 9.8 2 Sudoeste 4 Sudoeste 0 -- -- 83
2020-03-11 08:00:00 3.4 3 Norte 7 Norte 0 -- -- 99
2020-03-11 07:00:00 2.4 5 Norte 7 Noroeste 0 -- -- 96
2020-03-11 06:00:00 3.1 4 Norte 8 Norte 0 -- -- 96
2020-03-11 05:00:00 3.5 5 Norte 7 Noroeste 0 -- -- 95
2020-03-11 04:00:00 4 3 Noroeste 9 Noroeste 0 -- -- 95
2020-03-11 03:00:00 5 3 Sudoeste 6 Noroeste 0 -- -- 95
2020-03-11 02:00:00 5 3 Noroeste 8 Noroeste 0 -- -- 96
2020-03-11 01:00:00 4 7 Noroeste 8 Noroeste 0 -- -- 93
2020-03-11 00:00:00 5.3 3 Norte 6 Norte 0 -- -- 91
2020-03-10 23:00:00 6.3 4 Norte 9 Noroeste 0 -- -- 90
2020-03-10 22:00:00 6.5 3 Norte 10 Norte 0 -- -- 90
2020-03-10 21:00:00 5.9 2 Nordeste 7 Noroeste 0 -- -- 89
2020-03-10 20:00:00 6.8 3 Norte 5 Noroeste 0 -- -- 87
2020-03-10 19:00:00 8.9 2 Noroeste 5 Sur 0 -- -- 80
2020-03-10 18:00:00 10.3 2 Sur 9 Sur 0 -- -- 73
2020-03-10 17:00:00 10.9 6 Sur 14 Sur 0 -- -- 69
2020-03-10 16:00:00 12.2 6 Sur 13 Sur 0 -- -- 65
2020-03-10 15:00:00 13.1 4 Sur 16 Sur 0 -- -- 63
2020-03-10 14:00:00 13.4 5 Sur 14 Sur 0 -- -- 60
2020-03-10 13:00:00 11.9 4 Sur 12 Sur 0 -- -- 61
2020-03-10 12:00:00 10.8 5 Sur 14 Sur 0 -- -- 65
2020-03-10 11:00:00 8.8 3 Sudoeste 8 Sudoeste 0 -- -- 75
2020-03-10 10:00:00 6 3 Sur 8 Este 0 -- -- 89
2020-03-10 09:00:00 5 0 Calma 6 Noroeste 0 -- -- 96
2020-03-10 08:00:00 3.7 2 Norte 9 Nordeste 0 -- -- 99
2020-03-10 07:00:00 3.6 2 Este 7 Este 0 -- -- 100
2020-03-10 06:00:00 3.1 2 Norte 5 Este 0 -- -- 100
2020-03-10 05:00:00 2.2 0 Calma 5 Norte 0 -- -- 100
2020-03-10 04:00:00 2.7 0 Calma 7 Sudoeste 0 -- -- 98
2020-03-10 03:00:00 2.8 0 Calma 4 Sur 0 -- -- 96
2020-03-10 02:00:00 4.2 2 Sudeste 12 Oeste 0 -- -- 94
2020-03-10 01:00:00 5.1 3 Oeste 5 Oeste 0 -- -- 94
2020-03-10 00:00:00 5.3 3 Oeste 5 Noroeste 0 -- -- 95
2020-03-09 23:00:00 5.6 3 Sur 9 Oeste 0 -- -- 92
2020-03-09 22:00:00 5.3 6 Oeste 9 Oeste 0 -- -- 94
2020-03-09 21:00:00 7 0 Calma 8 Nordeste 0 -- -- 83
2020-03-09 20:00:00 8.7 2 Sur 13 Este 0 -- -- 81
2020-03-09 19:00:00 10.9 8 Este 19 Este 0 -- -- 73
2020-03-09 18:00:00 15.1 9 Nordeste 17 Nordeste 0 -- -- 38
2020-03-09 17:00:00 16.3 3 Sur 18 Sudeste 0 -- -- 39
2020-03-09 16:00:00 15.9 5 Sur 23 Sur 0 -- -- 44
2020-03-09 15:00:00 14.3 6 Sur 21 Sur 0 -- -- 45
2020-03-09 14:00:00 13.2 8 Sudoeste 23 Sur 0 -- -- 47
2020-03-09 13:00:00 13.2 12 Sudoeste 28 Sur 0 -- -- 53
2020-03-09 12:00:00 12.5 10 Sudoeste 26 Sudoeste 0 -- -- 58
2020-03-09 11:00:00 10.8 5 Sur 12 Sur 0 -- -- 72
2020-03-09 10:00:00 8.3 3 Sur 10 Sudoeste 0 -- -- 82
2020-03-09 09:00:00 6.9 4 Este 10 Noroeste 0 -- -- 87
2020-03-09 08:00:00 2.9 2 Noroeste 10 Nordeste 0 -- -- 96
2020-03-09 07:00:00 2.2 0 Calma 6 Noroeste 0 -- -- 93
2020-03-09 06:00:00 4.5 2 Oeste 9 Este 0 -- -- 92
2020-03-09 05:00:00 3.8 0 Calma 6 Noroeste 0 -- -- 95
2020-03-09 04:00:00 4.6 3 Noroeste 6 Noroeste 0 -- -- 91
2020-03-09 03:00:00 4 5 Noroeste 7 Norte 0 -- -- 97
2020-03-09 02:00:00 2.5 5 Noroeste 7 Norte 0 -- -- 95
2020-03-09 01:00:00 2.8 5 Noroeste 8 Noroeste 0 -- -- 93
2020-03-09 00:00:00 3.2 4 Noroeste 6 Norte 0 -- -- 92
2020-03-08 23:00:00 4.2 5 Noroeste 6 Norte 0 -- -- 90
2020-03-08 22:00:00 5.1 3 Norte 5 Norte 0 -- -- 86
2020-03-08 21:00:00 8.3 2 Norte 6 Oeste 0 -- -- 77
2020-03-08 20:00:00 10.4 6 Oeste 11 Sudoeste 0 -- -- 70
2020-03-08 19:00:00 10.8 6 Oeste 12 Sudoeste 0 -- -- 68
2020-03-08 18:00:00 12.4 9 Sudoeste 17 Sudoeste 0 -- -- 61
2020-03-08 17:00:00 14.2 9 Sur 20 Sur 0 -- -- 53
2020-03-08 16:00:00 15.7 10 Sur 19 Sudoeste 0 -- -- 47
2020-03-08 15:00:00 15.8 7 Sur 19 Sur 0 -- -- 50
2020-03-08 14:00:00 14.3 6 Sudoeste 18 Oeste 0 -- -- 54
2020-03-08 13:00:00 13 7 Oeste 15 Sur 0 -- -- 57
2020-03-08 12:00:00 11.3 6 Sudoeste 13 Sudoeste 0 -- -- 60
2020-03-08 11:00:00 9.7 2 Noroeste 9 Sur 0 -- -- 69
2020-03-08 10:00:00 7.8 6 Oeste 11 Oeste 0 -- -- 76
2020-03-08 09:00:00 5.7 2 Sur 4 Noroeste 0 -- -- 85
2020-03-08 08:00:00 0.1 0 Calma 8 Noroeste 0 -- -- 96
2020-03-08 07:00:00 0.2 0 Calma 6 Nordeste 0 -- -- 94
2020-03-08 06:00:00 0.5 4 Noroeste 7 Norte 0 -- -- 92
2020-03-08 05:00:00 2.3 3 Norte 5 Noroeste 0 -- -- 90
2020-03-08 04:00:00 3.2 0 Calma 4 Norte 0 -- -- 86
2020-03-08 03:00:00 3.4 0 Calma 4 Norte 0 -- -- 84
2020-03-08 02:00:00 3.5 2 Norte 5 Noroeste 0 -- -- 86
2020-03-08 01:00:00 3.2 3 Noroeste 6 Noroeste 0 -- -- 87
2020-03-08 00:00:00 3.5 3 Oeste 7 Oeste 0 -- -- 85
2020-03-07 23:00:00 4.4 3 Noroeste 10 Noroeste 0 -- -- 77
2020-03-07 22:00:00 5.5 3 Norte 8 Noroeste 0 -- -- 72
2020-03-07 21:00:00 7.4 3 Norte 13 Nordeste 0 -- -- 64
2020-03-07 20:00:00 8.7 3 Sudeste 14 Nordeste 0 -- -- 59
2020-03-07 19:00:00 11.1 4 Sudeste 15 Oeste 0 -- -- 43
2020-03-07 18:00:00 13.7 10 Noroeste 39 Noroeste 0 -- -- 26
2020-03-07 17:00:00 13.9 26 Noroeste 40 Noroeste 0 -- -- 24
2020-03-07 16:00:00 14.2 19 Noroeste 30 Noroeste 0 -- -- 22
2020-03-07 15:00:00 13.6 7 Sudoeste 19 Oeste 0 -- -- 34
2020-03-07 14:00:00 12.7 7 Sudoeste 23 Sudoeste 0 -- -- 38
2020-03-07 13:00:00 11.9 9 Sudoeste 21 Sudoeste 0 -- -- 38
2020-03-07 12:00:00 11.4 4 Sur 18 Sur 0 -- -- 38
2020-03-07 11:00:00 9.4 9 Sudoeste 30 Norte 0 -- -- 40
2020-03-07 10:00:00 9.5 14 Noroeste 26 Noroeste 0 -- -- 35
2020-03-07 09:00:00 8.1 10 Noroeste 21 Noroeste 0 -- -- 38
2020-03-07 08:00:00 5.2 8 Nordeste 21 Norte 0 -- -- 45
2020-03-07 07:00:00 4.8 12 Norte 36 Noroeste 0 -- -- 46
2020-03-07 06:00:00 1.9 4 Noroeste 17 Noroeste 0 -- -- 62
2020-03-07 05:00:00 5.4 15 Noroeste 35 Noroeste 0 -- -- 46
2020-03-07 04:00:00 4.8 13 Oeste 30 Oeste 0 -- -- 46
2020-03-07 03:00:00 3.9 9 Sudoeste 28 Oeste 0 -- -- 46
2020-03-07 02:00:00 4.3 6 Este 37 Norte 0 -- -- 55
2020-03-07 01:00:00 3.6 6 Este 21 Norte 0 -- -- 59
2020-03-07 00:00:00 4.3 12 Noroeste 20 Noroeste 0 -- -- 59
2020-03-06 23:00:00 4.6 8 Oeste 25 Oeste 0 -- -- 53
2020-03-06 22:00:00 5.2 13 Noroeste 31 Oeste 0 -- -- 48
2020-03-06 21:00:00 5.7 5 Norte 32 Noroeste 0 -- -- 44
2020-03-06 20:00:00 6.1 10 Noroeste 22 Noroeste 0 -- -- 43
2020-03-06 19:00:00 7.5 10 Oeste 27 Noroeste 0 -- -- 40
2020-03-06 18:00:00 9.8 18 Oeste 38 Noroeste 0 -- -- 30
2020-03-06 17:00:00 10.3 3 Nordeste 39 Noroeste 0 -- -- 52
2020-03-06 16:00:00 9.5 6 Sur 23 Sudoeste 0.2 -- -- 61
2020-03-06 15:00:00 9 10 Sudoeste 33 Sudoeste 0 -- -- 60
2020-03-06 14:00:00 9.8 14 Oeste 23 Sudoeste 0 -- -- 60
2020-03-06 13:00:00 10 12 Sudoeste 30 Sur 0 -- -- 57
2020-03-06 12:00:00 8.8 4 Sudeste 8 Sur 0 -- -- 68
2020-03-06 11:00:00 6.4 3 Sudeste 12 Este 0 -- -- 76
2020-03-06 10:00:00 4.3 3 Sur 8 Este 0 -- -- 83
2020-03-06 09:00:00 2.1 3 Sudeste 6 Este 0 -- -- 97
2020-03-06 08:00:00 0.2 2 Este 13 Sur 0 -- -- 99
2020-03-06 07:00:00 -0.8 4 Nordeste 11 Este 0 -- -- 98
2020-03-06 06:00:00 -0.8 3 Noroeste 7 Oeste 0 -- -- 99
2020-03-06 05:00:00 -1.2 3 Norte 6 Noroeste 0 -- -- 97
2020-03-06 04:00:00 -0.7 3 Norte 6 Norte 0 -- -- 96
2020-03-06 03:00:00 0.2 3 Noroeste 8 Noroeste 0 -- -- 95
2020-03-06 02:00:00 1 0 Calma 6 Norte 0 -- -- 96
2020-03-06 01:00:00 2.4 3 Norte 5 Norte 0 -- -- 89
2020-03-06 00:00:00 5 2 Sudeste 9 Sudeste 0 -- -- 85
2020-03-05 23:00:00 3.7 0 Calma 6 Sudoeste 0 -- -- 89
2020-03-05 22:00:00 6.2 2 Noroeste 17 Oeste 0 -- -- 80
2020-03-05 21:00:00 7.1 7 Oeste 19 Sudoeste 0 -- -- 76
2020-03-05 20:00:00 9.6 13 Sudoeste 23 Sudoeste 0 -- -- 67
2020-03-05 19:00:00 10.6 10 Sudoeste 28 Sur 0 -- -- 65
2020-03-05 18:00:00 12.3 21 Sudoeste 39 Sur 0.2 -- -- 65
2020-03-05 17:00:00 12.1 18 Sur 36 Sur 0.2 -- -- 83
2020-03-05 16:00:00 12.9 19 Sudoeste 33 Sur 0 -- -- 72
2020-03-05 15:00:00 13.7 23 Sudoeste 47 Sudoeste 0 -- -- 68
2020-03-05 14:00:00 13.8 23 Sudoeste 42 Sudoeste 0 -- -- 71
2020-03-05 13:00:00 13.7 26 Sudoeste 48 Sudoeste 0 -- -- 73
2020-03-05 12:00:00 14.4 30 Sudoeste 48 Sudoeste 0 -- -- 70
2020-03-05 11:00:00 13.2 17 Sudoeste 32 Sudoeste 0 -- -- 76
2020-03-05 10:00:00 10.9 15 Sudoeste 29 Sudoeste 0 -- -- 84
2020-03-05 09:00:00 8.4 9 Sur 16 Sudoeste 0 -- -- 100
2020-03-05 08:00:00 5.7 0 Calma 6 Noroeste 0 -- -- 100
2020-03-05 07:00:00 5.2 0 Calma 5 Noroeste 0 -- -- 100
2020-03-05 06:00:00 4.2 2 Norte 6 Noroeste 0 -- -- 100
2020-03-05 05:00:00 4.3 2 Norte 5 Norte 0 -- -- 99
2020-03-05 04:00:00 4.8 0 Calma 5 Norte 0 -- -- 98
2020-03-05 03:00:00 5.5 0 Calma 6 Noroeste 0 -- -- 99
2020-03-05 02:00:00 5.6 3 Norte 8 Norte 0 -- -- 99
2020-03-05 01:00:00 5.5 0 Calma 6 Noroeste 0 -- -- 98
2020-03-05 00:00:00 6 3 Norte 5 Norte 0 -- -- 95
2020-03-04 23:00:00 6.9 3 Norte 7 Norte 0 -- -- 96
2020-03-04 22:00:00 7.4 4 Norte 6 Noroeste 0 -- -- 94
2020-03-04 21:00:00 9.6 0 Calma 4 Sur 0 -- -- 85
2020-03-04 20:00:00 12.1 0 Calma 7 Sur 0 -- -- 81
2020-03-04 19:00:00 13 2 Sur 5 Este 0 -- -- 79
2020-03-04 18:00:00 14.1 2 Este 7 Este 0 -- -- 75
2020-03-04 17:00:00 14.4 3 Sur 18 Sudoeste 0 -- -- 74
2020-03-04 16:00:00 14.6 9 Sur 17 Sur 0 -- -- 69
2020-03-04 15:00:00 13.9 6 Sur 18 Sur 0 -- -- 64
2020-03-04 14:00:00 13.4 5 Sur 13 Sudoeste 0 -- -- 58
2020-03-04 13:00:00 12.8 3 Sur 12 Sur 0 -- -- 57
2020-03-04 12:00:00 10.4 7 Oeste 21 Oeste 0 -- -- 54
2020-03-04 11:00:00 9.3 4 Este 12 Este 0 -- -- 63
2020-03-04 10:00:00 7.4 4 Este 6 Este 0 -- -- 72
2020-03-04 09:00:00 3.4 0 Calma 5 Norte 0 -- -- 88
2020-03-04 08:00:00 0 2 Norte 4 Noroeste 0 -- -- 93
2020-03-04 07:00:00 -0.7 3 Norte 7 Norte 0 -- -- 93
2020-03-04 06:00:00 -0.6 5 Noroeste 8 Noroeste 0 -- -- 92
2020-03-04 05:00:00 0 4 Norte 9 Norte 0 -- -- 91
2020-03-04 04:00:00 1.8 0 Calma 5 Este 0 -- -- 84
2020-03-04 03:00:00 4.6 2 Sur 12 Sur 0 -- -- 71
2020-03-04 02:00:00 3.8 2 Noroeste 14 Nordeste 0 -- -- 78
2020-03-04 01:00:00 7.4 10 Oeste 19 Oeste 0 -- -- 52
2020-03-04 00:00:00 6.7 2 Sudeste 16 Noroeste 0 -- -- 63
2020-03-03 23:00:00 8.4 11 Noroeste 27 Norte 0 -- -- 56
2020-03-03 22:00:00 8.7 13 Norte 22 Noroeste 0 -- -- 54
2020-03-03 21:00:00 8.5 8 Nordeste 19 Oeste 0 -- -- 64
2020-03-03 20:00:00 8.4 9 Oeste 30 Oeste 0 -- -- 69
2020-03-03 19:00:00 7.7 21 Oeste 41 Sudoeste 0 -- -- 75
2020-03-03 18:00:00 8 27 Sudoeste 42 Sudoeste 0 -- -- 76
2020-03-03 17:00:00 8.3 28 Sudoeste 47 Sudoeste 0 -- -- 73
2020-03-03 16:00:00 7.6 25 Sudoeste 57 Sudoeste 0 -- -- 75
2020-03-03 15:00:00 9.1 17 Sudoeste 56 Sudoeste 0 -- -- 69
2020-03-03 14:00:00 8.1 31 Oeste 53 Oeste 0 -- -- 71
2020-03-03 13:00:00 8.2 30 Sudoeste 49 Sudoeste 0 -- -- 65
2020-03-03 12:00:00 6.1 9 Sudoeste 18 Sur 0 -- -- 73
2020-03-03 11:00:00 4.5 5 Oeste 12 Sudoeste 0 -- -- 80
2020-03-03 10:00:00 2.3 2 Norte 11 Nordeste 0 -- -- 85
2020-03-03 09:00:00 1.2 3 Nordeste 14 Este 0 -- -- 86
2020-03-03 08:00:00 0.1 2 Sudeste 6 Sur 0 -- -- 90
2020-03-03 07:00:00 -0.2 2 Sur 12 Este 0 -- -- 88
2020-03-03 06:00:00 -0.2 2 Norte 9 Sudoeste 0 -- -- 85
2020-03-03 05:00:00 0.3 4 Sudoeste 10 Sudoeste 0 -- -- 84
2020-03-03 04:00:00 1.6 8 Oeste 24 Sudoeste 0 -- -- 77
2020-03-03 03:00:00 2.2 14 Oeste 27 Sudoeste 0 -- -- 76
2020-03-03 02:00:00 2.2 9 Oeste 17 Oeste 0 -- -- 74
2020-03-03 01:00:00 2.9 8 Oeste 13 Oeste 0 -- -- 68
2020-03-03 00:00:00 3.4 8 Oeste 14 Oeste 0 -- -- 66
2020-03-02 23:00:00 3.9 6 Oeste 17 Sudoeste 0 -- -- 65
2020-03-02 22:00:00 5.3 10 Oeste 16 Oeste 0 -- -- 51
2020-03-02 21:00:00 6.4 11 Oeste 27 Oeste 0 -- -- 44
2020-03-02 20:00:00 7.1 13 Sudoeste 24 Sudoeste 0 -- -- 39
2020-03-02 19:00:00 8 17 Oeste 32 Sudoeste 0 -- -- 39
2020-03-02 18:00:00 10.7 12 Oeste 39 Oeste 0 -- -- 33
2020-03-02 17:00:00 11.7 23 Oeste 52 Oeste 0 -- -- 27
2020-03-02 16:00:00 12.1 25 Oeste 48 Oeste 0 -- -- 25
2020-03-02 15:00:00 12.8 21 Oeste 44 Oeste 0 -- -- 39
2020-03-02 14:00:00 11.2 22 Oeste 41 Sudoeste 0 -- -- 47
2020-03-02 13:00:00 9.6 28 Sudoeste 45 Sudoeste 0 -- -- 78
2020-03-02 12:00:00 8 21 Sudoeste 55 Sudoeste 0.8 -- -- 91
2020-03-02 11:00:00 8.8 27 Oeste 46 Sudoeste 0.2 -- -- 86
2020-03-02 10:00:00 8.9 13 Sur 33 Sur 0 -- -- 91
2020-03-02 09:00:00 9.2 28 Sudoeste 54 Sudoeste 0.6 -- -- 90
2020-03-02 08:00:00 8.7 13 Sur 33 Sur 0 -- -- 99
2020-03-02 07:00:00 8.6 14 Sur 37 Sur 0.2 -- -- 100
2020-03-02 06:00:00 8 15 Sur 32 Sur 2 -- -- 99
2020-03-02 05:00:00 7.4 6 Sur 12 Sur 1.8 -- -- 95
2020-03-02 04:00:00 7.6 4 Noroeste 9 Noroeste 1.8 -- -- 93
2020-03-02 03:00:00 8.2 0 Calma 16 Oeste 0.6 -- -- 87
2020-03-02 02:00:00 9.8 4 Sudoeste 10 Sudoeste 0 -- -- 73
2020-03-02 01:00:00 9.4 3 Sudoeste 11 Oeste 0 -- -- 74
2020-03-02 00:00:00 10 5 Sur 23 Sudoeste 0 -- -- 70